createdAt,value
2022-09-26T05:11:10.318Z,72.00
2022-09-26T05:12:10.256Z,76.00
2022-09-26T05:13:10.270Z,84.00
2022-09-26T05:14:10.217Z,92.00
2022-09-26T05:15:10.189Z,100.00
2022-09-26T05:16:10.265Z,108.00
2022-09-26T05:17:10.154Z,116.00
2022-09-26T05:18:10.182Z,124.00
2022-09-26T05:19:10.171Z,136.00
2022-09-26T05:20:10.139Z,144.00
2022-09-26T05:21:10.112Z,156.00
2022-09-26T05:22:10.116Z,164.00
2022-09-26T05:23:10.127Z,176.00
2022-09-26T05:24:10.102Z,188.00
2022-09-26T05:25:10.074Z,196.00
2022-09-26T05:26:10.045Z,208.00
2022-09-26T05:27:10.094Z,220.00
2022-09-26T05:28:10.012Z,232.00
2022-09-26T05:29:10.481Z,240.00
2022-09-26T05:30:09.982Z,252.00
2022-09-26T05:31:10.638Z,264.00
2022-09-26T05:32:10.062Z,276.00
2022-09-26T05:33:09.962Z,292.00
2022-09-26T05:34:11.301Z,304.00
2022-09-26T05:35:09.973Z,316.00
2022-09-26T05:36:09.947Z,332.00
2022-09-26T05:37:09.907Z,348.00
2022-09-26T05:38:09.902Z,356.00
2022-09-26T05:39:09.961Z,364.00
2022-09-26T05:40:09.868Z,372.00
2022-09-26T05:41:09.907Z,384.00
2022-09-26T05:42:09.842Z,400.00
2022-09-26T05:43:09.879Z,420.00
2022-09-26T05:44:09.826Z,456.00
2022-09-26T05:45:09.867Z,508.00
2022-09-26T05:46:09.809Z,556.00
2022-09-26T05:47:09.814Z,596.00
2022-09-26T05:48:09.838Z,636.00
2022-09-26T05:49:09.825Z,664.00
2022-09-26T05:50:09.773Z,692.00
2022-09-26T05:51:09.735Z,708.00
2022-09-26T05:52:09.754Z,724.00
2022-09-26T05:53:09.691Z,736.00
2022-09-26T05:54:09.721Z,748.00
2022-09-26T05:55:09.674Z,772.00
2022-09-26T05:56:09.666Z,804.00
2022-09-26T05:57:09.643Z,840.00
2022-09-26T05:58:10.374Z,868.00
2022-09-26T05:59:09.756Z,892.00
2022-09-26T06:00:09.615Z,924.00
2022-09-26T06:01:09.594Z,956.00
2022-09-26T06:02:11.472Z,996.00
2022-09-26T06:03:09.551Z,1036.00
2022-09-26T06:04:09.547Z,1076.00
2022-09-26T06:05:09.521Z,1124.00
2022-09-26T06:06:09.533Z,1180.00
2022-09-26T06:07:09.528Z,1232.00
2022-09-26T06:08:09.551Z,1276.00
2022-09-26T06:09:09.547Z,1352.00
2022-09-26T06:10:09.494Z,1452.00
2022-09-26T06:11:09.454Z,1560.00
2022-09-26T06:12:09.472Z,1640.00
2022-09-26T06:13:09.426Z,1688.00
2022-09-26T06:14:09.433Z,1736.00
2022-09-26T06:15:09.422Z,1668.00
2022-09-26T06:16:09.448Z,1604.00
2022-09-26T06:17:10.091Z,1472.00
2022-09-26T06:18:09.374Z,1564.00
2022-09-26T06:19:09.421Z,1796.00
2022-09-26T06:20:09.337Z,1948.00
2022-09-26T06:21:09.360Z,1964.00
2022-09-26T06:22:09.361Z,1832.00
2022-09-26T06:23:09.339Z,1528.00
2022-09-26T06:24:09.300Z,1112.00
2022-09-26T06:25:09.270Z,1360.00
2022-09-26T06:26:09.279Z,1356.00
2022-09-26T06:27:09.233Z,1504.00
2022-09-26T06:28:09.274Z,1540.00
2022-09-26T06:29:09.315Z,1412.00
2022-09-26T06:30:09.218Z,1596.00
2022-09-26T06:31:09.248Z,1884.00
2022-09-26T06:32:09.248Z,2124.00
2022-09-26T06:33:09.188Z,2104.00
2022-09-26T06:34:09.172Z,2332.00
2022-09-26T06:35:09.124Z,2532.00
2022-09-26T06:36:09.111Z,2776.00
2022-09-26T06:37:09.119Z,3144.00
2022-09-26T06:38:09.882Z,3380.00
2022-09-26T06:39:09.656Z,3500.00
2022-09-26T06:40:09.085Z,3644.00
2022-09-26T06:41:09.106Z,3736.00
2022-09-26T06:42:09.098Z,3756.00
2022-09-26T06:43:09.014Z,3732.00
2022-09-26T06:44:09.021Z,3648.00
2022-09-26T06:45:09.022Z,3480.00
2022-09-26T06:46:08.997Z,3312.00
2022-09-26T06:47:09.351Z,3060.00
2022-09-26T06:48:08.956Z,3008.00
2022-09-26T06:49:09.002Z,3024.00
2022-09-26T06:50:08.945Z,3088.00
2022-09-26T06:51:08.942Z,3228.00
2022-09-26T06:52:08.906Z,3172.00
2022-09-26T06:53:11.361Z,3100.00
2022-09-26T06:54:08.948Z,2852.00
2022-09-26T06:55:08.869Z,2492.00
2022-09-26T06:56:08.854Z,2064.00
2022-09-26T06:57:14.160Z,1768.00
2022-09-26T06:58:10.116Z,1636.00
2022-09-26T06:59:08.923Z,1860.00
2022-09-26T07:00:08.826Z,2044.00
2022-09-26T07:01:08.945Z,2136.00
2022-09-26T07:02:09.000Z,2168.00
2022-09-26T07:03:08.767Z,1924.00
2022-09-26T07:04:08.792Z,1796.00
2022-09-26T07:05:08.737Z,1884.00
2022-09-26T07:06:08.730Z,2012.00
2022-09-26T07:07:08.785Z,2108.00
2022-09-26T07:08:08.741Z,2432.00
2022-09-26T07:09:14.915Z,3012.00
2022-09-26T07:10:09.767Z,3628.00
2022-09-26T07:11:31.139Z,3480.00
2022-09-26T07:12:14.492Z,3476.00
2022-09-26T07:13:09.654Z,3844.00
2022-09-26T07:14:08.657Z,4100.00
2022-09-26T07:15:08.609Z,4172.00
2022-09-26T07:16:08.658Z,4128.00
2022-09-26T07:17:08.612Z,4060.00
2022-09-26T07:18:08.611Z,3864.00
2022-09-26T07:19:08.628Z,3452.00
2022-09-26T07:20:08.582Z,2840.00
2022-09-26T07:21:08.529Z,2436.00
2022-09-26T07:22:08.525Z,2456.00
2022-09-26T07:23:09.487Z,2320.00
2022-09-26T07:24:08.536Z,2328.00
2022-09-26T07:25:08.476Z,2344.00
2022-09-26T07:26:08.474Z,2820.00
2022-09-26T07:27:08.459Z,3168.00
2022-09-26T07:28:08.449Z,3156.00
2022-09-26T07:29:08.589Z,3200.00
2022-09-26T07:30:08.429Z,3260.00
2022-09-26T07:31:08.511Z,3072.00
2022-09-26T07:32:08.408Z,2636.00
2022-09-26T07:33:08.386Z,2704.00
2022-09-26T07:34:08.379Z,2768.00
2022-09-26T07:35:08.397Z,2876.00
2022-09-26T07:36:08.349Z,2900.00
2022-09-26T07:37:08.339Z,3016.00
2022-09-26T07:38:08.334Z,3156.00
2022-09-26T07:39:08.303Z,3288.00
2022-09-26T07:40:08.345Z,3488.00
2022-09-26T07:41:08.297Z,3524.00
2022-09-26T07:42:08.271Z,3524.00
2022-09-26T07:43:42.459Z,3636.00
2022-09-26T07:45:26.143Z,3528.00
2022-09-26T07:46:09.425Z,3464.00
2022-09-26T07:47:08.377Z,3432.00
2022-09-26T07:48:08.246Z,3664.00
2022-09-26T07:49:08.170Z,3780.00
2022-09-26T07:50:08.215Z,3808.00
2022-09-26T07:51:09.364Z,3812.00
2022-09-26T07:52:08.135Z,3792.00
2022-09-26T07:53:08.153Z,3880.00
2022-09-26T07:54:08.112Z,3860.00
2022-09-26T07:55:08.111Z,3836.00
2022-09-26T07:56:08.132Z,3912.00
2022-09-26T07:57:08.106Z,3964.00
2022-09-26T07:58:08.083Z,3908.00
2022-09-26T07:59:08.050Z,3828.00
2022-09-26T08:00:08.074Z,3952.00
2022-09-26T08:01:11.843Z,4024.00
2022-09-26T08:02:08.124Z,3868.00
2022-09-26T08:03:08.106Z,3740.00
2022-09-26T08:04:07.978Z,3652.00
2022-09-26T08:05:08.233Z,3668.00
2022-09-26T08:06:08.901Z,3924.00
2022-09-26T08:07:08.517Z,4060.00
2022-09-26T08:08:08.019Z,4180.00
2022-09-26T08:09:08.956Z,4352.00
2022-09-26T08:10:08.218Z,4416.00
2022-09-26T08:11:07.923Z,4340.00
2022-09-26T08:12:09.794Z,4280.00
2022-09-26T08:13:07.956Z,4280.00
2022-09-26T08:14:09.119Z,4504.00
2022-09-26T08:15:07.886Z,4584.00
2022-09-26T08:16:08.168Z,4520.00
2022-09-26T08:17:11.954Z,4500.00
2022-09-26T08:18:08.836Z,4564.00
2022-09-26T08:19:07.893Z,4832.00
2022-09-26T08:20:08.054Z,5084.00
2022-09-26T08:21:08.343Z,5296.00
2022-09-26T08:22:07.790Z,5360.00
2022-09-26T08:23:07.741Z,5436.00
2022-09-26T08:24:08.418Z,5448.00
2022-09-26T08:25:07.829Z,5440.00
2022-09-26T08:26:07.734Z,5552.00
2022-09-26T08:27:07.724Z,5780.00
2022-09-26T08:28:07.808Z,6212.00
2022-09-26T08:29:07.675Z,6436.00
2022-09-26T08:30:11.589Z,6448.00
2022-09-26T08:31:07.748Z,6408.00
2022-09-26T08:32:07.655Z,6584.00
2022-09-26T08:33:07.909Z,6700.00
2022-09-26T08:34:07.605Z,6720.00
2022-09-26T08:35:07.647Z,6640.00
2022-09-26T08:36:07.831Z,6708.00
2022-09-26T08:37:07.855Z,6720.00
2022-09-26T08:38:07.514Z,6664.00
2022-09-26T08:39:07.579Z,6524.00
2022-09-26T08:40:07.577Z,6508.00
2022-09-26T08:41:10.208Z,6456.00
2022-09-26T08:42:07.505Z,6456.00
2022-09-26T08:43:07.821Z,6580.00
2022-09-26T08:44:09.180Z,6328.00
2022-09-26T08:45:07.950Z,6592.00
2022-09-26T08:46:07.534Z,6672.00
2022-09-26T08:47:07.420Z,6824.00
2022-09-26T08:48:07.459Z,7072.00
2022-09-26T08:49:07.639Z,7348.00
2022-09-26T08:50:07.358Z,7448.00
2022-09-26T08:51:07.442Z,7792.00
2022-09-26T08:52:07.658Z,8844.00
2022-09-26T08:53:07.710Z,9284.00
2022-09-26T08:54:07.400Z,9824.00
2022-09-26T08:55:07.305Z,10284.00
2022-09-26T08:56:07.642Z,10360.00
2022-09-26T08:57:07.707Z,10328.00
2022-09-26T08:58:10.142Z,10580.00
2022-09-26T08:59:07.327Z,10180.00
2022-09-26T09:00:07.241Z,9928.00
2022-09-26T09:01:07.265Z,9940.00
2022-09-26T09:02:07.303Z,9800.00
2022-09-26T09:03:07.586Z,9820.00
2022-09-26T09:04:07.268Z,9168.00
2022-09-26T09:05:07.321Z,8604.00
2022-09-26T09:06:09.030Z,8720.00
2022-09-26T09:07:07.188Z,8312.00
2022-09-26T09:08:07.177Z,7440.00
2022-09-26T09:09:07.826Z,7248.00
2022-09-26T09:10:07.183Z,7212.00
2022-09-26T09:11:07.378Z,6984.00
2022-09-26T09:12:07.104Z,6032.00
2022-09-26T09:13:07.107Z,5756.00
2022-09-26T09:14:07.196Z,5992.00
2022-09-26T09:15:24.588Z,5496.00
2022-09-26T09:16:08.111Z,5920.00
2022-09-26T09:17:07.223Z,5152.00
2022-09-26T09:18:09.993Z,4732.00
2022-09-26T09:19:08.006Z,4524.00
2022-09-26T09:20:07.034Z,5220.00
2022-09-26T09:21:07.222Z,5704.00
2022-09-26T09:22:06.939Z,5232.00
2022-09-26T09:23:07.293Z,5752.00
2022-09-26T09:24:06.991Z,5552.00
2022-09-26T09:25:06.909Z,5636.00
2022-09-26T09:28:08.773Z,6812.00
2022-09-26T09:29:10.530Z,6760.00
2022-09-26T09:30:15.683Z,7588.00
2022-09-26T09:31:08.156Z,8448.00
2022-09-26T09:32:07.128Z,8508.00
2022-09-26T11:27:17.810Z,3784.00
2022-09-26T11:28:17.412Z,4188.00
2022-09-26T11:29:17.414Z,3100.00
2022-09-26T11:30:17.707Z,3824.00
2022-09-26T11:31:17.402Z,4992.00
2022-09-26T11:32:17.376Z,5648.00
2022-09-26T11:33:17.329Z,5340.00
2022-09-26T11:34:17.322Z,4828.00
2022-09-26T11:35:17.625Z,4232.00
2022-09-26T11:36:17.322Z,4028.00
2022-09-26T11:37:17.300Z,3972.00
2022-09-26T11:38:17.283Z,3888.00
2022-09-26T11:39:17.261Z,4268.00
2022-09-26T11:40:17.346Z,4620.00
2022-09-26T11:41:17.237Z,4676.00
2022-09-26T11:42:21.063Z,4608.00
2022-09-26T11:43:17.266Z,5360.00
2022-09-26T11:44:17.445Z,6768.00
2022-09-26T11:45:17.308Z,7668.00
2022-09-26T11:46:17.206Z,7116.00
2022-09-26T11:47:17.157Z,5968.00
2022-09-26T11:48:17.124Z,6076.00
2022-09-26T11:49:17.108Z,4968.00
2022-09-26T11:50:17.144Z,4392.00
2022-09-26T11:51:17.149Z,4048.00
2022-09-26T11:52:17.088Z,3868.00
2022-09-26T11:53:17.198Z,4132.00
2022-09-26T11:54:17.047Z,3612.00
2022-09-26T11:55:17.069Z,3512.00
2022-09-26T11:56:17.028Z,3592.00
2022-09-26T11:57:17.043Z,3532.00
2022-09-26T11:58:16.998Z,3080.00
2022-09-26T11:59:16.988Z,2560.00
2022-09-26T12:00:16.983Z,2216.00
2022-09-26T12:01:21.835Z,2196.00
2022-09-26T12:02:17.038Z,2348.00
2022-09-26T12:03:17.130Z,3216.00
2022-09-26T12:04:17.332Z,2776.00
2022-09-26T12:05:17.180Z,3052.00
2022-09-26T12:06:16.950Z,3636.00
2022-09-26T12:07:17.167Z,4464.00
2022-09-26T12:08:16.902Z,5664.00
2022-09-26T12:09:16.845Z,5492.00
2022-09-26T12:10:16.857Z,4884.00
2022-09-26T12:11:16.857Z,4232.00
2022-09-26T12:12:16.860Z,3588.00
2022-09-26T12:13:17.093Z,2836.00
2022-09-26T12:14:16.796Z,3136.00
2022-09-26T12:15:16.805Z,3924.00
2022-09-26T12:16:16.946Z,4852.00
2022-09-26T12:17:16.741Z,5376.00
2022-09-26T12:18:16.747Z,5772.00
2022-09-26T12:19:16.911Z,6128.00
2022-09-26T12:20:16.711Z,6440.00
2022-09-26T12:21:16.735Z,7732.00
2022-09-26T12:22:16.721Z,8664.00
2022-09-26T12:23:16.950Z,9392.00
2022-09-26T12:24:16.676Z,9096.00
2022-09-26T12:25:20.013Z,9384.00
2022-09-26T12:26:16.666Z,9496.00
2022-09-26T12:27:16.624Z,9100.00
2022-09-26T12:28:16.844Z,9000.00
2022-09-26T12:29:16.622Z,8256.00
2022-09-26T12:30:16.581Z,7292.00
2022-09-26T12:31:19.655Z,6856.00
2022-09-26T12:32:16.560Z,6480.00
2022-09-26T12:33:16.558Z,6416.00
2022-09-26T12:34:16.532Z,6508.00
2022-09-26T12:35:16.506Z,6656.00
2022-09-26T12:36:16.505Z,6824.00
2022-09-26T12:37:16.575Z,7316.00
2022-09-26T12:38:16.683Z,7704.00
2022-09-26T12:39:16.477Z,7500.00
2022-09-26T12:40:16.487Z,7916.00
2022-09-26T12:41:16.481Z,7888.00
2022-09-26T12:42:16.444Z,7468.00
2022-09-26T12:43:16.663Z,7556.00
2022-09-26T12:44:16.421Z,9764.00
2022-09-26T12:45:16.369Z,9768.00
2022-09-26T12:46:16.652Z,9420.00
2022-09-26T12:47:16.402Z,8772.00
2022-09-26T12:48:16.374Z,8288.00
2022-09-26T12:49:16.479Z,7708.00
2022-09-26T12:50:16.310Z,7676.00
2022-09-26T12:51:16.291Z,7192.00
2022-09-26T12:52:16.409Z,7092.00
2022-09-26T12:53:16.362Z,6560.00
2022-09-26T12:54:17.253Z,6460.00
2022-09-26T12:55:21.189Z,5828.00
2022-09-26T12:56:16.230Z,6676.00
2022-09-26T12:57:16.236Z,5676.00
2022-09-26T12:58:16.264Z,5084.00
2022-09-26T12:59:16.312Z,5204.00
2022-09-26T13:00:16.185Z,5060.00
2022-09-26T13:01:16.265Z,4916.00
2022-09-26T13:02:16.226Z,4712.00
2022-09-26T13:03:16.207Z,5896.00
2022-09-26T13:04:16.399Z,5104.00
2022-09-26T13:05:16.215Z,4196.00
2022-09-26T13:06:16.113Z,4416.00
2022-09-26T13:07:20.337Z,4444.00
2022-09-26T13:08:16.377Z,5076.00
2022-09-26T13:09:16.210Z,4560.00
2022-09-26T13:10:16.073Z,3956.00
2022-09-26T13:11:16.025Z,5016.00
2022-09-26T13:12:16.037Z,5252.00
2022-09-26T13:13:16.065Z,6156.00
2022-09-26T13:14:16.003Z,5708.00
2022-09-26T13:15:16.028Z,5208.00
2022-09-26T13:16:16.752Z,5576.00
2022-09-26T13:17:15.978Z,5332.00
2022-09-26T13:18:16.093Z,5676.00
2022-09-26T13:19:16.722Z,6048.00
2022-09-26T13:20:16.899Z,6420.00
2022-09-26T13:21:16.224Z,6012.00
2022-09-26T13:22:16.252Z,5696.00
2022-09-26T13:23:16.253Z,5360.00
2022-09-26T13:24:15.909Z,5320.00
2022-09-26T13:25:15.869Z,5060.00
2022-09-26T13:26:15.841Z,4844.00
2022-09-26T13:27:15.932Z,4944.00
2022-09-26T13:28:16.580Z,5152.00
2022-09-26T13:29:18.169Z,5292.00
2022-09-26T13:30:15.778Z,5380.00
2022-09-26T13:31:15.843Z,5208.00
2022-09-26T13:32:15.753Z,5036.00
2022-09-26T13:33:15.769Z,4764.00
2022-09-26T13:34:16.529Z,4484.00
2022-09-26T13:35:15.738Z,4676.00
2022-09-26T13:36:15.710Z,4312.00
2022-09-26T13:37:15.747Z,4224.00
2022-09-26T13:38:15.755Z,3816.00
2022-09-26T13:39:15.801Z,3356.00
2022-09-26T13:40:15.671Z,3004.00
2022-09-26T13:41:15.643Z,3380.00
2022-09-26T13:42:15.626Z,3084.00
2022-09-26T13:43:18.261Z,3152.00
2022-09-26T13:44:17.302Z,3160.00
2022-09-26T13:45:15.644Z,3060.00
2022-09-26T13:46:15.693Z,3068.00
2022-09-26T13:47:15.587Z,2988.00
2022-09-26T13:48:15.561Z,3024.00
2022-09-26T13:49:15.563Z,2956.00
2022-09-26T13:50:15.581Z,2860.00
2022-09-26T13:51:15.535Z,2728.00
2022-09-26T13:52:15.547Z,2736.00
2022-09-26T13:53:15.496Z,2736.00
2022-09-26T13:54:15.507Z,2804.00
2022-09-26T13:55:15.480Z,2848.00
2022-09-26T13:56:15.464Z,2908.00
2022-09-26T13:57:15.440Z,2992.00
2022-09-26T13:58:16.157Z,2804.00
2022-09-26T13:59:15.468Z,3060.00
2022-09-26T14:00:15.389Z,2972.00
2022-09-26T14:01:15.437Z,2916.00
2022-09-26T14:02:15.401Z,2908.00
2022-09-26T14:03:15.546Z,3196.00
2022-09-26T14:04:15.481Z,3108.00
2022-09-26T14:05:15.375Z,2892.00
2022-09-26T14:06:15.352Z,2536.00
2022-09-26T14:07:15.295Z,3012.00
2022-09-26T14:08:15.289Z,2364.00
2022-09-26T14:09:19.234Z,1984.00
2022-09-26T14:10:17.279Z,2412.00
2022-09-26T14:11:15.254Z,2664.00
2022-09-26T14:12:15.333Z,2296.00
2022-09-26T14:13:15.244Z,2716.00
2022-09-26T14:14:15.304Z,2640.00
2022-09-26T14:15:15.207Z,1980.00
2022-09-26T14:16:15.252Z,2452.00
2022-09-26T14:17:19.991Z,2188.00
2022-09-26T14:18:16.205Z,2416.00
2022-09-26T14:19:15.162Z,2388.00
2022-09-26T14:20:15.128Z,2772.00
2022-09-26T14:21:15.113Z,2256.00
2022-09-26T14:22:15.099Z,2244.00
2022-09-26T14:23:15.088Z,1964.00
2022-09-26T14:24:15.127Z,1896.00
2022-09-26T14:25:15.344Z,2004.00
2022-09-26T14:26:15.111Z,2196.00
2022-09-26T14:27:15.078Z,2456.00
2022-09-26T14:28:15.034Z,2300.00
2022-09-26T14:29:15.249Z,2428.00
2022-09-26T14:30:15.004Z,2468.00
2022-09-26T14:31:15.107Z,2308.00
2022-09-26T14:32:14.955Z,2592.00
2022-09-26T14:33:14.991Z,3016.00
2022-09-26T14:34:15.056Z,2464.00
2022-09-26T14:35:14.927Z,2332.00
2022-09-26T14:36:14.908Z,2336.00
2022-09-26T14:37:14.886Z,2432.00
2022-09-26T14:38:14.915Z,2356.00
2022-09-26T14:39:18.232Z,2980.00
2022-09-26T14:40:14.921Z,3176.00
2022-09-26T14:41:14.934Z,3140.00
2022-09-26T14:42:14.942Z,3372.00
2022-09-26T14:43:14.803Z,3348.00
2022-09-26T14:44:15.980Z,3804.00
2022-09-26T14:45:14.799Z,4180.00
2022-09-26T14:46:14.864Z,4268.00
2022-09-26T14:47:14.772Z,3976.00
2022-09-26T14:48:14.743Z,3324.00
2022-09-26T14:49:14.731Z,3228.00
2022-09-26T14:50:19.880Z,3284.00
2022-09-26T14:51:14.709Z,3292.00
2022-09-26T14:52:14.835Z,3620.00
2022-09-26T14:53:14.685Z,4440.00
2022-09-26T14:54:14.717Z,4652.00
2022-09-26T14:55:14.670Z,4820.00
2022-09-26T14:56:14.699Z,4280.00
2022-09-26T14:57:18.779Z,4916.00
2022-09-26T14:58:15.610Z,4888.00
2022-09-26T14:59:14.662Z,5104.00
2022-09-26T15:00:14.628Z,5440.00
2022-09-26T15:01:14.675Z,5796.00
2022-09-26T15:02:14.615Z,5844.00
2022-09-26T15:03:17.306Z,4836.00
2022-09-26T15:04:14.599Z,4092.00
2022-09-26T15:05:14.565Z,3620.00
2022-09-26T15:06:15.550Z,3732.00
2022-09-26T15:07:14.503Z,3144.00
2022-09-26T15:08:14.470Z,2440.00
2022-09-26T15:09:14.645Z,2108.00
2022-09-26T15:10:14.449Z,2040.00
2022-09-26T15:11:14.414Z,1948.00
2022-09-26T15:12:14.408Z,1996.00
2022-09-26T15:13:14.399Z,1944.00
2022-09-26T15:14:14.414Z,2256.00
2022-09-26T15:15:14.428Z,1648.00
2022-09-26T15:16:16.169Z,1476.00
2022-09-26T15:17:14.388Z,1756.00
2022-09-26T15:18:14.336Z,1628.00
2022-09-26T15:19:14.347Z,1324.00
2022-09-26T15:20:14.299Z,1192.00
2022-09-26T15:21:14.344Z,1184.00
2022-09-26T15:22:14.287Z,1760.00
2022-09-26T15:23:14.368Z,1900.00
2022-09-26T15:24:14.316Z,1476.00
2022-09-26T15:25:19.084Z,1392.00
2022-09-26T15:26:14.242Z,1288.00
2022-09-26T15:27:14.330Z,1124.00
2022-09-26T15:28:14.198Z,1500.00
2022-09-26T15:29:14.223Z,1788.00
2022-09-26T15:30:14.242Z,1204.00
2022-09-26T15:31:14.264Z,960.00
2022-09-26T15:32:16.016Z,952.00
2022-09-26T15:33:16.270Z,836.00
2022-09-26T15:34:14.117Z,804.00
2022-09-26T15:35:16.938Z,696.00
2022-09-26T15:36:14.139Z,532.00
2022-09-26T15:37:14.111Z,568.00
2022-09-26T15:38:14.063Z,644.00
2022-09-26T15:39:14.069Z,628.00
2022-09-26T15:40:14.114Z,672.00
2022-09-26T15:41:14.049Z,796.00
2022-09-26T15:42:14.027Z,948.00
2022-09-26T15:43:14.042Z,884.00
2022-09-26T15:44:13.995Z,1084.00
2022-09-26T15:45:13.975Z,972.00
2022-09-26T15:46:14.063Z,1112.00
2022-09-26T15:47:14.011Z,1108.00
2022-09-26T15:48:14.022Z,1268.00
2022-09-26T15:49:13.938Z,1144.00
2022-09-26T15:50:13.921Z,1032.00
2022-09-26T15:51:13.894Z,1056.00
2022-09-26T15:52:13.880Z,1040.00
2022-09-26T15:53:14.150Z,872.00
2022-09-26T15:54:15.158Z,968.00
2022-09-26T15:55:13.847Z,996.00
2022-09-26T15:56:13.855Z,864.00
2022-09-26T15:57:13.828Z,816.00
2022-09-26T15:58:13.809Z,840.00
2022-09-26T15:59:13.814Z,776.00
2022-09-26T16:00:13.782Z,656.00
2022-09-26T16:01:13.843Z,656.00
2022-09-26T16:02:13.817Z,556.00
2022-09-26T16:03:13.741Z,552.00
2022-09-26T16:04:13.743Z,560.00
2022-09-26T16:05:14.034Z,464.00
2022-09-26T16:06:13.723Z,468.00
2022-09-26T16:07:13.694Z,412.00
2022-09-26T16:08:13.765Z,424.00
2022-09-26T16:09:13.694Z,432.00
2022-09-26T16:10:13.961Z,440.00
2022-09-26T16:11:13.652Z,416.00
2022-09-26T16:12:15.306Z,384.00
2022-09-26T16:13:13.661Z,440.00
2022-09-26T16:14:13.797Z,344.00
2022-09-26T16:15:13.637Z,380.00
2022-09-26T16:16:13.667Z,344.00
2022-09-26T16:17:13.713Z,304.00
2022-09-26T16:18:13.909Z,312.00
2022-09-26T16:19:13.569Z,356.00
2022-09-26T16:20:13.771Z,352.00
2022-09-26T16:21:13.500Z,332.00
2022-09-26T16:22:13.490Z,268.00
2022-09-26T16:23:13.483Z,252.00
2022-09-26T16:24:13.495Z,232.00
2022-09-26T16:25:13.447Z,236.00
2022-09-26T16:26:14.106Z,196.00
2022-09-26T16:27:13.430Z,192.00
2022-09-26T16:28:13.409Z,248.00
2022-09-26T16:29:13.408Z,212.00
2022-09-26T16:30:13.396Z,172.00
2022-09-26T16:31:13.586Z,148.00
2022-09-26T16:32:13.371Z,152.00
2022-09-26T16:33:14.064Z,164.00
2022-09-26T16:34:13.462Z,120.00
2022-09-26T16:35:13.344Z,148.00
2022-09-26T16:36:13.342Z,144.00
2022-09-26T16:37:13.302Z,164.00
2022-09-26T16:38:13.289Z,136.00
2022-09-26T16:39:13.288Z,136.00
2022-09-26T16:40:16.019Z,120.00
2022-09-26T16:41:13.252Z,84.00
2022-09-26T16:42:13.255Z,84.00
2022-09-26T16:43:13.237Z,88.00
2022-09-26T16:44:13.200Z,72.00
2022-09-26T16:45:13.238Z,104.00
2022-09-26T16:46:13.229Z,104.00
2022-09-26T16:47:13.183Z,96.00
2022-09-26T16:48:13.235Z,80.00
2022-09-26T16:49:13.140Z,88.00
2022-09-26T16:50:13.197Z,68.00
2022-09-26T16:51:13.146Z,68.00
2022-09-26T16:52:13.510Z,56.00
2022-09-26T16:53:13.101Z,68.00
2022-09-26T16:54:13.102Z,44.00
2022-09-26T16:55:13.086Z,56.00
2022-09-26T16:56:13.057Z,44.00
2022-09-26T16:57:13.062Z,52.00
2022-09-26T16:58:13.023Z,52.00
2022-09-26T16:59:13.013Z,40.00
2022-09-26T17:00:13.046Z,36.00
2022-09-26T17:01:13.056Z,40.00
2022-09-26T17:02:12.983Z,40.00
2022-09-26T17:03:12.998Z,52.00
2022-09-26T17:04:13.040Z,40.00
2022-09-26T17:05:12.955Z,48.00
2022-09-26T17:06:12.971Z,28.00
2022-09-26T17:07:14.655Z,28.00
2022-09-26T17:08:12.889Z,32.00
2022-09-26T17:09:12.872Z,28.00
2022-09-26T17:10:12.874Z,32.00
2022-09-26T17:11:16.612Z,28.00
2022-09-26T17:12:12.863Z,24.00
2022-09-26T17:13:12.846Z,20.00
2022-09-26T17:14:12.894Z,20.00
2022-09-26T17:15:12.819Z,20.00
2022-09-26T17:16:12.903Z,20.00
2022-09-26T17:17:12.795Z,16.00
2022-09-26T17:18:12.781Z,12.00
2022-09-26T17:19:13.312Z,12.00
2022-09-26T17:20:12.744Z,8.00
2022-09-26T17:21:15.403Z,8.00
2022-09-26T17:22:13.095Z,8.00
2022-09-26T17:23:38.181Z,8.00
2022-09-26T17:24:13.732Z,4.00
2022-09-26T17:25:12.698Z,4.00
2022-09-26T17:26:12.679Z,4.00
2022-09-26T17:27:12.637Z,4.00
2022-09-26T17:28:12.942Z,0.00
2022-09-26T17:29:12.608Z,0.00
2022-09-26T17:30:12.610Z,0.00
2022-09-26T17:31:12.664Z,0.00
2022-09-26T17:32:12.583Z,0.00
2022-09-26T17:33:12.581Z,0.00
2022-09-26T17:34:13.427Z,0.00
2022-09-26T17:35:12.542Z,0.00
2022-09-26T17:36:12.607Z,0.00
2022-09-26T17:37:12.539Z,0.00
2022-09-26T17:38:12.515Z,0.00
2022-09-26T17:39:12.553Z,0.00
2022-09-26T17:40:12.545Z,0.00
2022-09-26T17:41:12.490Z,0.00
2022-09-26T17:42:12.482Z,0.00
2022-09-26T17:43:12.443Z,0.00
2022-09-26T17:44:17.267Z,0.00
2022-09-26T17:45:12.413Z,0.00
2022-09-26T17:46:15.851Z,0.00
2022-09-26T17:47:12.382Z,0.00
2022-09-26T17:48:12.401Z,0.00
2022-09-26T17:49:16.407Z,0.00
2022-09-26T17:50:12.418Z,0.00
2022-09-26T17:51:12.334Z,0.00
2022-09-26T17:52:12.328Z,0.00
2022-09-26T17:53:13.047Z,0.00
2022-09-26T17:54:12.347Z,0.00
2022-09-26T17:55:12.291Z,0.00
2022-09-26T17:56:12.258Z,0.00
2022-09-26T17:57:12.264Z,0.00
2022-09-26T17:58:12.231Z,0.00
2022-09-26T17:59:12.300Z,0.00
2022-09-26T18:00:14.978Z,0.00
2022-09-26T18:01:12.233Z,0.00
2022-09-26T18:02:12.292Z,0.00
2022-09-26T18:03:15.612Z,0.00
2022-09-26T18:04:14.070Z,0.00
2022-09-26T18:05:12.201Z,0.00
2022-09-26T18:06:12.163Z,0.00
2022-09-26T18:07:12.122Z,0.00
2022-09-26T18:08:12.121Z,0.00
2022-09-26T18:09:12.205Z,0.00
2022-09-26T18:10:12.075Z,0.00
2022-09-26T18:11:12.054Z,0.00
2022-09-26T18:12:12.087Z,0.00
2022-09-26T18:13:13.395Z,0.00
2022-09-26T18:14:12.072Z,0.00
2022-09-26T18:15:12.000Z,0.00
2022-09-26T18:16:12.409Z,0.00
2022-09-26T18:17:12.000Z,0.00
2022-09-26T18:18:12.297Z,0.00
2022-09-26T18:19:11.994Z,0.00
2022-09-26T18:20:11.934Z,0.00
2022-09-26T18:21:11.927Z,0.00
2022-09-26T18:22:11.937Z,0.00
2022-09-26T18:23:12.617Z,0.00
2022-09-26T18:24:14.886Z,0.00
2022-09-26T18:25:12.871Z,0.00
2022-09-26T18:26:11.866Z,0.00
2022-09-26T18:27:11.862Z,0.00
2022-09-26T18:28:11.834Z,0.00
2022-09-26T18:29:11.852Z,0.00
2022-09-26T18:30:11.831Z,0.00
2022-09-26T18:31:11.878Z,0.00
2022-09-26T18:32:11.793Z,0.00
2022-09-26T18:33:11.788Z,0.00
2022-09-26T18:34:11.837Z,0.00
2022-09-26T18:35:12.023Z,0.00
2022-09-26T18:36:11.754Z,0.00
2022-09-26T18:37:11.742Z,0.00
2022-09-26T18:38:11.717Z,0.00
2022-09-26T18:39:11.682Z,0.00
2022-09-26T18:40:11.752Z,0.00
2022-09-26T18:41:11.695Z,0.00
2022-09-26T18:42:11.656Z,0.00
2022-09-26T18:43:11.662Z,0.00
2022-09-26T18:44:11.641Z,0.00
2022-09-26T18:45:11.613Z,0.00
2022-09-26T18:46:11.695Z,0.00
2022-09-26T18:47:11.584Z,0.00
2022-09-26T18:48:14.363Z,0.00
2022-09-26T18:49:16.649Z,0.00
2022-09-26T18:50:11.542Z,0.00
2022-09-26T18:51:11.581Z,0.00
2022-09-26T18:52:14.267Z,0.00
2022-09-26T18:53:11.519Z,0.00
2022-09-26T18:54:11.729Z,0.00
2022-09-26T18:55:11.486Z,0.00
2022-09-26T18:56:11.467Z,0.00
2022-09-26T18:57:11.811Z,0.00
2022-09-26T18:58:11.446Z,0.00
2022-09-26T18:59:11.441Z,0.00
2022-09-26T19:00:11.696Z,0.00
2022-09-26T19:01:11.574Z,0.00
2022-09-26T19:02:11.500Z,0.00
2022-09-26T19:03:11.480Z,0.00
2022-09-26T19:04:11.378Z,0.00
2022-09-26T19:05:11.358Z,0.00
2022-09-26T19:06:11.358Z,0.00
2022-09-26T19:07:11.340Z,0.00
2022-09-26T19:08:11.324Z,0.00
2022-09-26T19:09:11.301Z,0.00
2022-09-26T19:10:11.282Z,0.00
2022-09-26T19:11:11.329Z,0.00
2022-09-26T19:12:11.276Z,0.00
2022-09-26T19:13:11.661Z,0.00
2022-09-26T19:14:11.225Z,0.00
2022-09-26T19:15:11.583Z,0.00
2022-09-26T19:16:13.032Z,0.00
2022-09-26T19:17:11.203Z,0.00
2022-09-26T19:18:11.183Z,0.00
2022-09-26T19:19:11.169Z,0.00
2022-09-26T19:20:11.157Z,0.00
2022-09-26T19:21:11.153Z,0.00
2022-09-26T19:22:11.135Z,0.00
2022-09-26T19:23:11.186Z,0.00
2022-09-26T19:24:11.091Z,0.00
2022-09-26T19:25:11.115Z,0.00
2022-09-26T19:26:11.094Z,0.00
2022-09-26T19:27:11.134Z,0.00
2022-09-26T19:28:11.046Z,0.00
2022-09-26T19:29:12.204Z,0.00
2022-09-26T19:30:11.015Z,0.00
2022-09-26T19:31:11.359Z,0.00